Arthur Maersk — OXJH2 — position and weather

sailwx.info

Track history (hours):
 
Tides and Currents Weather Stations Pressure Air Temp Water Temp Dewpoint Dewpoint Depression Visibility Wind Speed Wind Dir Waves Ship Positions

Arthur Maersk

Last reported at 2016-Aug-17 02:21 UTC. Time now 2016-Aug-27 18:44 UTC.
Position N 40°26' W 073°48'.
Warning: this ship's position is 10 days out of date.

Length 352 m; draft 12.7 m.

Type: Ship (hazmat cat A). MMSI: 220221000.

Date/timePositionNaut miles runAvg speedWind from/ knotsBaromVisibWave heightAir tempDewpointWater temp
2016-Aug-17 02:21N 40°26' W 073°48'1114.2
2016-Aug-17 01:34N 40°32' W 074°01'8 8.1
2016-Aug-17 00:34N 40°39' W 074°07'2 2.4
2016-Aug-16 23:31N 40°41' W 074°09'0 0.0
2016-Aug-16 22:25N 40°41' W 074°09'0 0.0
2016-Aug-16 21:22N 40°41' W 074°09'0 0.0
2016-Aug-16 20:28N 40°41' W 074°09'0 0.0
2016-Aug-16 19:31N 40°41' W 074°09'0 0.0
2016-Aug-16 18:13N 40°41' W 074°09'0 0.0
2016-Aug-16 15:31N 40°41' W 074°09'0 0.0
2016-Aug-16 12:13N 40°41' W 074°09'0 0.0
2016-Aug-16 11:31N 40°41' W 074°09'0 0.0
2016-Aug-16 10:19N 40°41' W 074°09'0 0.0
2016-Aug-16 09:28N 40°41' W 074°09'0 0.0
2016-Aug-16 08:28N 40°41' W 074°09'0 0.0
2016-Aug-16 04:31N 40°41' W 074°09'0 0.0
2016-Aug-16 03:13N 40°41' W 074°09'0 0.0
2016-Aug-16 02:22N 40°41' W 074°09'0 0.0
2016-Aug-16 00:28N 40°41' W 074°09'0 0.0
2016-Aug-15 23:22N 40°41' W 074°09'0 0.0
2016-Aug-15 22:31N 40°41' W 074°09'0 0.0
2016-Aug-15 21:31N 40°41' W 074°09'0 0.0
2016-Aug-15 20:31N 40°41' W 074°09'0 0.0
2016-Aug-15 19:31N 40°41' W 074°09'0 0.0
2016-Aug-15 15:22N 40°41' W 074°09'1 0.9
2016-Aug-15 14:32N 40°40' W 074°08'3 3.1
2016-Aug-15 13:34N 40°39' W 074°05'11 9.8
2016-Aug-15 12:26N 40°30' W 073°56'12014.7
2016-Aug-15 04:18N 38°30' W 073°50'1215.8
2016-Aug-15 03:34N 38°19' W 073°52'  
2016-Aug-11 15:33N 26°08' W 079°26'2020.3
2016-Aug-11 14:33N 25°57' W 079°45'2019.6
2016-Aug-11 13:33N 25°47' W 080°03'4 0.3
2016-Aug-10 20:33N 25°46' W 080°08'8 8.1
2016-Aug-10 19:33N 25°50' W 080°00'1515.2
2016-Aug-10 18:33N 26°05' W 079°57'1515.4
2016-Aug-10 17:33N 26°20' W 079°51'1515.0
2016-Aug-10 16:33N 26°34' W 079°46'1515.2
2016-Aug-10 15:33N 26°49' W 079°42'1515.3
2016-Aug-10 14:33N 27°04' W 079°41'29815.7
2016-Aug-09 19:33N 31°58' W 080°41'1111.3
2016-Aug-09 18:34N 32°02' W 080°53'9 8.6
2016-Aug-09 17:33N 32°05' W 081°03'5 4.6
2016-Aug-09 16:33N 32°07' W 081°08'2 1.4
2016-Aug-09 15:28N 32°08' W 081°09'0 0.0
2016-Aug-09 14:28N 32°08' W 081°09'0 0.0
2016-Aug-09 13:28N 32°08' W 081°09'0 0.0
2016-Aug-09 12:33N 32°08' W 081°09'0 0.0
2016-Aug-09 11:33N 32°08' W 081°09'0 0.0
2016-Aug-09 10:33N 32°08' W 081°09'0 0.0
2016-Aug-09 09:33N 32°08' W 081°09'0 0.0
2016-Aug-09 08:33N 32°08' W 081°09'0 0.0
2016-Aug-09 07:33N 32°08' W 081°09'0 0.0
2016-Aug-09 05:33N 32°08' W 081°09'0 0.0
2016-Aug-09 04:33N 32°08' W 081°09'0 0.0
2016-Aug-09 03:33N 32°08' W 081°09'0 0.0
2016-Aug-09 02:27N 32°08' W 081°09'0 0.0
2016-Aug-09 01:27N 32°08' W 081°09'0 0.0
2016-Aug-09 00:33N 32°08' W 081°09'0 0.0
2016-Aug-08 23:33N 32°08' W 081°09'0 0.0
2016-Aug-08 22:33N 32°08' W 081°09'0 0.0
2016-Aug-08 21:33N 32°08' W 081°09'0 0.0
2016-Aug-08 20:15N 32°08' W 081°09'0 0.0
2016-Aug-08 19:33N 32°08' W 081°09'0 0.0
2016-Aug-08 18:33N 32°08' W 081°09'0 0.0
2016-Aug-08 14:33N 32°08' W 081°09'0 0.0
2016-Aug-08 13:33N 32°08' W 081°09'0 0.0
2016-Aug-08 12:33N 32°08' W 081°09'0 0.0
2016-Aug-08 11:33N 32°08' W 081°09'0 0.0
2016-Aug-08 10:27N 32°08' W 081°09'0 0.0
2016-Aug-08 09:33N 32°08' W 081°09'0 0.0
2016-Aug-08 08:33N 32°08' W 081°09'0 0.0
2016-Aug-08 07:21N 32°08' W 081°09'0 0.0
2016-Aug-08 06:15N 32°08' W 081°09'0 0.0
2016-Aug-08 05:27N 32°08' W 081°09'0 0.0
2016-Aug-08 04:27N 32°08' W 081°09'0 0.0
2016-Aug-08 03:33N 32°08' W 081°09'3 2.8
2016-Aug-08 02:33N 32°06' W 081°07'5 5.3
2016-Aug-08 01:33N 32°06' W 081°00'1211.6
2016-Aug-08 00:33N 32°01' W 080°48'9 9.0
2016-Aug-07 23:33N 31°57' W 080°39'7 6.6
2016-Aug-07 22:33N 31°57' W 080°31'7 7.0
2016-Aug-07 21:33N 31°58' W 080°23'  
Track history (hours):
 
Tides and Currents Weather Stations Pressure Air Temp Water Temp Dewpoint Dewpoint Depression Visibility Wind Speed Wind Dir Waves Ship Positions

Arthur Maersk

Last reported at 2016-Aug-17 02:21 UTC. Time now 2016-Aug-27 18:44 UTC.
Position N 40°26' W 073°48'.
Warning: this ship's position is 10 days out of date.

Length 352 m; draft 12.7 m.

Type: Ship (hazmat cat A). MMSI: 220221000.

Date/timePositionNaut miles runAvg speedWind from/ knotsBaromVisibWave heightAir tempDewpointWater temp
2016-Aug-17 02:21N 40°26' W 073°48'1114.2
2016-Aug-17 01:34N 40°32' W 074°01'8 8.1
2016-Aug-17 00:34N 40°39' W 074°07'2 2.4
2016-Aug-16 23:31N 40°41' W 074°09'0 0.0
2016-Aug-16 22:25N 40°41' W 074°09'0 0.0
2016-Aug-16 21:22N 40°41' W 074°09'0 0.0
2016-Aug-16 20:28N 40°41' W 074°09'0 0.0
2016-Aug-16 19:31N 40°41' W 074°09'0 0.0
2016-Aug-16 18:13N 40°41' W 074°09'0 0.0
2016-Aug-16 15:31N 40°41' W 074°09'0 0.0
2016-Aug-16 12:13N 40°41' W 074°09'0 0.0
2016-Aug-16 11:31N 40°41' W 074°09'0 0.0
2016-Aug-16 10:19N 40°41' W 074°09'0 0.0
2016-Aug-16 09:28N 40°41' W 074°09'0 0.0
2016-Aug-16 08:28N 40°41' W 074°09'0 0.0
2016-Aug-16 04:31N 40°41' W 074°09'0 0.0
2016-Aug-16 03:13N 40°41' W 074°09'0 0.0
2016-Aug-16 02:22N 40°41' W 074°09'0 0.0
2016-Aug-16 00:28N 40°41' W 074°09'0 0.0
2016-Aug-15 23:22N 40°41' W 074°09'0 0.0
2016-Aug-15 22:31N 40°41' W 074°09'0 0.0
2016-Aug-15 21:31N 40°41' W 074°09'0 0.0
2016-Aug-15 20:31N 40°41' W 074°09'0 0.0
2016-Aug-15 19:31N 40°41' W 074°09'0 0.0
2016-Aug-15 15:22N 40°41' W 074°09'1 0.9
2016-Aug-15 14:32N 40°40' W 074°08'3 3.1
2016-Aug-15 13:34N 40°39' W 074°05'11 9.8
2016-Aug-15 12:26N 40°30' W 073°56'12014.7
2016-Aug-15 04:18N 38°30' W 073°50'1215.8
2016-Aug-15 03:34N 38°19' W 073°52'  
2016-Aug-11 15:33N 26°08' W 079°26'2020.3
2016-Aug-11 14:33N 25°57' W 079°45'2019.6
2016-Aug-11 13:33N 25°47' W 080°03'4 0.3
2016-Aug-10 20:33N 25°46' W 080°08'8 8.1
2016-Aug-10 19:33N 25°50' W 080°00'1515.2
2016-Aug-10 18:33N 26°05' W 079°57'1515.4
2016-Aug-10 17:33N 26°20' W 079°51'1515.0
2016-Aug-10 16:33N 26°34' W 079°46'1515.2
2016-Aug-10 15:33N 26°49' W 079°42'1515.3
2016-Aug-10 14:33N 27°04' W 079°41'29815.7
2016-Aug-09 19:33N 31°58' W 080°41'1111.3
2016-Aug-09 18:34N 32°02' W 080°53'9 8.6
2016-Aug-09 17:33N 32°05' W 081°03'5 4.6
2016-Aug-09 16:33N 32°07' W 081°08'2 1.4
2016-Aug-09 15:28N 32°08' W 081°09'0 0.0
2016-Aug-09 14:28N 32°08' W 081°09'0 0.0
2016-Aug-09 13:28N 32°08' W 081°09'0 0.0
2016-Aug-09 12:33N 32°08' W 081°09'0 0.0
2016-Aug-09 11:33N 32°08' W 081°09'0 0.0
2016-Aug-09 10:33N 32°08' W 081°09'0 0.0
2016-Aug-09 09:33N 32°08' W 081°09'0 0.0
2016-Aug-09 08:33N 32°08' W 081°09'0 0.0
2016-Aug-09 07:33N 32°08' W 081°09'0 0.0
2016-Aug-09 05:33N 32°08' W 081°09'0 0.0
2016-Aug-09 04:33N 32°08' W 081°09'0 0.0
2016-Aug-09 03:33N 32°08' W 081°09'0 0.0
2016-Aug-09 02:27N 32°08' W 081°09'0 0.0
2016-Aug-09 01:27N 32°08' W 081°09'0 0.0
2016-Aug-09 00:33N 32°08' W 081°09'0 0.0
2016-Aug-08 23:33N 32°08' W 081°09'0 0.0
2016-Aug-08 22:33N 32°08' W 081°09'0 0.0
2016-Aug-08 21:33N 32°08' W 081°09'0 0.0
2016-Aug-08 20:15N 32°08' W 081°09'0 0.0
2016-Aug-08 19:33N 32°08' W 081°09'0 0.0
2016-Aug-08 18:33N 32°08' W 081°09'0 0.0
2016-Aug-08 14:33N 32°08' W 081°09'0 0.0
2016-Aug-08 13:33N 32°08' W 081°09'0 0.0
2016-Aug-08 12:33N 32°08' W 081°09'0 0.0
2016-Aug-08 11:33N 32°08' W 081°09'0 0.0
2016-Aug-08 10:27N 32°08' W 081°09'0 0.0
2016-Aug-08 09:33N 32°08' W 081°09'0 0.0
2016-Aug-08 08:33N 32°08' W 081°09'0 0.0
2016-Aug-08 07:21N 32°08' W 081°09'0 0.0
2016-Aug-08 06:15N 32°08' W 081°09'0 0.0
2016-Aug-08 05:27N 32°08' W 081°09'0 0.0
2016-Aug-08 04:27N 32°08' W 081°09'0 0.0
2016-Aug-08 03:33N 32°08' W 081°09'3 2.8
2016-Aug-08 02:33N 32°06' W 081°07'5 5.3
2016-Aug-08 01:33N 32°06' W 081°00'1211.6
2016-Aug-08 00:33N 32°01' W 080°48'9 9.0
2016-Aug-07 23:33N 31°57' W 080°39'7 6.6
2016-Aug-07 22:33N 31°57' W 080°31'7 7.0
2016-Aug-07 21:33N 31°58' W 080°23'  

Dump ship's entire track history